createdAt,value
2022-11-01T00:01:55.432Z,18.40
2022-11-01T00:03:57.171Z,18.40
2022-11-01T00:05:59.315Z,18.40
2022-11-01T00:08:01.310Z,18.50
2022-11-01T00:10:03.813Z,18.50
2022-11-01T00:12:05.794Z,18.40
2022-11-01T00:14:07.665Z,18.50
2022-11-01T00:16:09.383Z,18.50
2022-11-01T00:21:39.315Z,18.40
2022-11-01T00:44:09.239Z,18.40
2022-11-01T00:46:52.021Z,18.50
2022-11-01T00:49:05.385Z,18.50
2022-11-01T00:51:16.028Z,18.40
2022-11-01T00:53:30.506Z,18.40
2022-11-01T00:55:39.916Z,18.40
2022-11-01T00:58:01.787Z,18.50
2022-11-01T01:00:28.403Z,18.40
2022-11-01T01:02:33.199Z,18.40
2022-11-01T01:04:45.532Z,18.40
2022-11-01T01:06:56.706Z,18.40
2022-11-01T01:09:02.629Z,18.40
2022-11-01T01:11:17.771Z,18.40
2022-11-01T01:13:45.003Z,18.40
2022-11-01T01:15:59.232Z,18.40
2022-11-01T01:21:02.230Z,18.40
2022-11-01T01:23:23.039Z,18.40
2022-11-01T01:25:33.821Z,18.40
2022-11-01T01:27:40.943Z,18.50
2022-11-01T01:29:54.936Z,18.50
2022-11-01T01:32:06.441Z,18.50
2022-11-01T01:34:18.913Z,18.50
2022-11-01T01:37:18.804Z,18.50
2022-11-01T01:39:23.299Z,18.50
2022-11-01T01:41:46.461Z,18.50
2022-11-01T01:44:10.305Z,18.50
2022-11-01T01:59:55.229Z,18.50
2022-11-01T02:10:04.711Z,18.50
2022-11-01T02:19:49.300Z,18.40
2022-11-01T02:22:09.945Z,18.50
2022-11-01T02:30:26.567Z,18.50
2022-11-01T02:33:32.132Z,18.50
2022-11-01T02:39:43.739Z,18.50
2022-11-01T02:42:39.389Z,18.50
2022-11-01T02:45:21.941Z,18.50
2022-11-01T02:47:28.529Z,18.40
2022-11-01T02:50:02.423Z,18.50
2022-11-01T02:52:10.545Z,18.50
2022-11-01T02:54:32.787Z,18.40
2022-11-01T02:56:43.917Z,18.50
2022-11-01T02:58:52.027Z,18.50
2022-11-01T03:01:25.637Z,18.50
2022-11-01T03:03:55.233Z,18.50
2022-11-01T03:06:06.812Z,18.50
2022-11-01T03:10:52.050Z,18.50
2022-11-01T03:13:14.360Z,18.50
2022-11-01T03:15:56.547Z,18.50
2022-11-01T03:18:17.002Z,18.50
2022-11-01T03:20:35.507Z,18.50
2022-11-01T03:22:45.867Z,18.50
2022-11-01T03:24:52.281Z,18.50
2022-11-01T03:27:03.922Z,18.50
2022-11-01T03:29:12.601Z,18.50
2022-11-01T03:31:17.806Z,18.50
2022-11-01T03:33:23.488Z,18.50
2022-11-01T03:35:28.784Z,18.50
2022-11-01T03:37:32.902Z,18.50
2022-11-01T03:39:46.006Z,18.50
2022-11-01T03:41:49.373Z,18.50
2022-11-01T03:43:51.702Z,18.50
2022-11-01T03:45:53.894Z,18.50
2022-11-01T03:47:55.623Z,18.50
2022-11-01T03:50:16.766Z,18.50
2022-11-01T03:52:18.444Z,18.50
2022-11-01T03:54:20.178Z,18.50
2022-11-01T03:56:21.975Z,18.60
2022-11-01T03:58:23.848Z,18.60
2022-11-01T04:00:25.463Z,18.60
2022-11-01T04:02:27.075Z,18.60
2022-11-01T04:04:28.700Z,18.60
2022-11-01T04:06:30.392Z,18.60
2022-11-01T04:08:32.200Z,18.60
2022-11-01T04:10:34.152Z,18.60
2022-11-01T04:12:35.882Z,18.60
2022-11-01T04:14:56.242Z,18.70
2022-11-01T04:17:16.360Z,18.60
2022-11-01T04:19:36.391Z,18.60
2022-11-01T04:21:38.202Z,18.70
2022-11-01T04:23:39.979Z,18.60
2022-11-01T04:25:41.616Z,18.70
2022-11-01T04:27:43.244Z,18.60
2022-11-01T04:29:45.084Z,18.60
2022-11-01T04:31:46.719Z,18.70
2022-11-01T04:33:48.354Z,18.60
2022-11-01T04:35:50.083Z,18.70
2022-11-01T04:38:01.014Z,18.70
2022-11-01T04:40:03.027Z,18.70
2022-11-01T04:42:05.305Z,18.70
2022-11-01T04:44:07.434Z,18.70
2022-11-01T04:46:09.078Z,18.70
2022-11-01T04:48:16.868Z,18.70
2022-11-01T04:50:21.830Z,18.70
2022-11-01T04:52:23.572Z,18.70
2022-11-01T04:54:25.182Z,18.60
2022-11-01T04:56:26.879Z,18.60
2022-11-01T04:58:28.506Z,18.60
2022-11-01T05:00:32.925Z,18.60
2022-11-01T05:02:34.806Z,18.60
2022-11-01T05:04:36.449Z,18.60
2022-11-01T05:06:38.320Z,18.60
2022-11-01T05:08:39.990Z,18.60
2022-11-01T05:10:43.149Z,18.50
2022-11-01T05:12:44.954Z,18.50
2022-11-01T05:14:46.575Z,18.50
2022-11-01T05:16:48.204Z,18.50
2022-11-01T05:18:49.883Z,18.50
2022-11-01T05:20:51.491Z,18.50
2022-11-01T05:22:57.107Z,18.50
2022-11-01T05:24:58.783Z,18.50
2022-11-01T05:27:00.725Z,18.50
2022-11-01T05:29:08.710Z,18.50
2022-11-01T05:31:11.038Z,18.50
2022-11-01T05:33:12.693Z,18.50
2022-11-01T05:35:14.380Z,18.40
2022-11-01T05:37:16.255Z,18.40
2022-11-01T05:39:17.886Z,18.40
2022-11-01T05:41:19.522Z,18.40
2022-11-01T05:43:21.124Z,18.40
2022-11-01T05:45:22.832Z,18.40
2022-11-01T05:47:24.463Z,18.40
2022-11-01T05:49:26.078Z,18.40
2022-11-01T05:51:27.758Z,18.30
2022-11-01T05:53:29.407Z,18.40
2022-11-01T05:55:31.036Z,18.40
2022-11-01T05:57:33.671Z,18.40
2022-11-01T05:59:35.379Z,18.30
2022-11-01T06:01:37.027Z,18.40
2022-11-01T06:03:38.702Z,18.40
2022-11-01T06:05:40.390Z,18.40
2022-11-01T06:07:41.995Z,18.40
2022-11-01T06:09:43.653Z,18.40
2022-11-01T06:11:45.544Z,18.40
2022-11-01T06:13:47.162Z,18.40
2022-11-01T06:15:48.805Z,18.40
2022-11-01T06:18:22.878Z,18.40
2022-11-01T06:20:57.685Z,18.40
2022-11-01T06:23:13.294Z,18.40
2022-11-01T06:25:24.813Z,18.40
2022-11-01T06:27:31.258Z,18.40
2022-11-01T06:29:35.764Z,18.40
2022-11-01T06:31:39.308Z,18.40
2022-11-01T06:33:43.690Z,18.40
2022-11-01T06:35:55.310Z,18.40
2022-11-01T06:38:17.315Z,18.40
2022-11-01T06:40:26.909Z,18.40
2022-11-01T06:42:34.149Z,18.40
2022-11-01T06:44:44.506Z,18.40
2022-11-01T06:46:55.581Z,18.40
2022-11-01T06:49:10.722Z,18.50
2022-11-01T06:51:25.496Z,18.50
2022-11-01T06:53:54.836Z,18.50
2022-11-01T06:56:05.691Z,18.40
2022-11-01T07:00:48.065Z,18.50
2022-11-01T07:03:11.100Z,18.40
2022-11-01T07:05:24.424Z,18.50
2022-11-01T07:07:28.408Z,18.50
2022-11-01T07:09:41.184Z,18.50
2022-11-01T07:11:56.625Z,18.40
2022-11-01T07:14:38.542Z,18.40
2022-11-01T07:17:05.207Z,18.40
2022-11-01T07:19:41.932Z,18.40
2022-11-01T07:22:02.075Z,18.40
2022-11-01T07:24:07.798Z,18.40
2022-11-01T07:26:44.402Z,18.40
2022-11-01T07:31:57.242Z,18.40
2022-11-01T07:34:01.909Z,18.40
2022-11-01T07:36:13.805Z,18.40
2022-11-01T07:38:25.919Z,18.40
2022-11-01T07:41:02.649Z,18.40
2022-11-01T07:43:16.120Z,18.40
2022-11-01T07:45:28.928Z,18.40
2022-11-01T07:47:34.178Z,18.40
2022-11-01T07:57:49.969Z,18.50
2022-11-01T07:59:59.235Z,18.50
2022-11-01T08:07:28.943Z,18.50
2022-11-01T08:09:49.906Z,18.50
2022-11-01T08:12:18.457Z,18.50
2022-11-01T08:14:35.194Z,18.50
2022-11-01T08:16:53.289Z,18.40
2022-11-01T08:19:05.228Z,18.50
2022-11-01T08:21:33.344Z,18.50
2022-11-01T08:26:47.171Z,18.50
2022-11-01T08:28:59.880Z,18.50
2022-11-01T08:31:19.489Z,18.50
2022-11-01T08:33:43.150Z,18.60
2022-11-01T08:36:02.572Z,18.60
2022-11-01T08:38:47.119Z,18.60
2022-11-01T08:41:16.168Z,18.60
2022-11-01T08:43:40.663Z,18.60
2022-11-01T08:45:53.608Z,18.60
2022-11-01T08:48:31.509Z,18.60
2022-11-01T08:50:46.795Z,18.70
2022-11-01T08:53:23.062Z,18.70
2022-11-01T08:55:27.285Z,18.70
2022-11-01T08:58:00.594Z,18.70
2022-11-01T09:01:03.856Z,18.70
2022-11-01T09:02:57.708Z,18.80
2022-11-01T09:05:11.057Z,18.80
2022-11-01T09:07:16.859Z,18.80
2022-11-01T09:09:30.697Z,18.80
2022-11-01T09:11:39.426Z,18.80
2022-11-01T09:13:41.236Z,18.80
2022-11-01T09:15:43.078Z,18.80
2022-11-01T09:17:54.338Z,18.80
2022-11-01T09:23:51.249Z,18.80
2022-11-01T09:26:10.902Z,18.90
2022-11-01T09:28:22.980Z,18.90
2022-11-01T09:30:41.513Z,18.80
2022-11-01T09:32:51.796Z,18.90
2022-11-01T09:35:15.661Z,18.90
2022-11-01T09:37:30.373Z,18.90
2022-11-01T09:39:35.120Z,18.90
2022-11-01T09:41:39.097Z,18.90
2022-11-01T09:43:53.387Z,18.90
2022-11-01T09:46:00.825Z,18.90
2022-11-01T09:48:10.933Z,18.90
2022-11-01T09:50:15.587Z,18.90
2022-11-01T09:52:43.234Z,18.90
2022-11-01T09:54:49.007Z,18.90
2022-11-01T09:57:26.794Z,18.90
2022-11-01T09:59:48.848Z,18.90
2022-11-01T10:02:09.886Z,18.90
2022-11-01T10:04:23.412Z,19.00
2022-11-01T10:06:38.180Z,19.00
2022-11-01T10:09:08.701Z,19.00
2022-11-01T10:11:33.605Z,19.00
2022-11-01T10:14:02.235Z,19.00
2022-11-01T10:19:36.722Z,19.00
2022-11-01T10:25:22.457Z,19.00
2022-11-01T10:28:11.897Z,19.00
2022-11-01T10:30:30.698Z,19.10
2022-11-01T10:33:25.834Z,19.10
2022-11-01T10:35:51.943Z,19.10
2022-11-01T10:38:49.639Z,19.00
2022-11-01T10:40:49.638Z,19.10
2022-11-01T10:42:59.747Z,19.10
2022-11-01T10:45:07.607Z,19.10
2022-11-01T10:50:09.569Z,19.10
2022-11-01T10:52:16.229Z,19.20
2022-11-01T10:54:31.715Z,19.20
2022-11-01T10:56:41.898Z,19.20
2022-11-01T10:58:48.996Z,19.20
2022-11-01T11:00:53.278Z,19.20
2022-11-01T11:03:12.178Z,19.20
2022-11-01T11:05:16.983Z,19.20
2022-11-01T11:07:25.761Z,19.20
2022-11-01T11:09:43.468Z,19.20
2022-11-01T11:11:46.867Z,19.20
2022-11-01T11:13:56.167Z,19.30
2022-11-01T11:16:04.326Z,19.30
2022-11-01T11:18:15.371Z,19.30
2022-11-01T11:20:21.103Z,19.40
2022-11-01T11:22:25.749Z,19.40
2022-11-01T11:24:35.424Z,19.50
2022-11-01T11:26:39.358Z,19.50
2022-11-01T11:28:44.448Z,19.60
2022-11-01T11:30:46.502Z,19.70
2022-11-01T11:32:49.130Z,19.70
2022-11-01T11:34:52.496Z,19.80
2022-11-01T11:36:55.085Z,19.90
2022-11-01T11:38:57.576Z,19.90
2022-11-01T11:40:59.365Z,20.00
2022-11-01T11:43:20.962Z,20.10
2022-11-01T11:45:24.790Z,20.10
2022-11-01T11:47:28.368Z,20.20
2022-11-01T11:49:30.383Z,20.20
2022-11-01T11:51:37.638Z,20.20
2022-11-01T11:53:39.534Z,20.20
2022-11-01T11:55:44.425Z,20.20
2022-11-01T11:57:52.913Z,20.30
2022-11-01T11:59:56.031Z,20.30
2022-11-01T12:02:08.041Z,20.30
2022-11-01T12:04:16.397Z,20.40
2022-11-01T12:06:25.082Z,20.40
2022-11-01T12:08:38.108Z,20.40
2022-11-01T12:10:45.614Z,20.50
2022-11-01T12:12:51.499Z,20.50
2022-11-01T12:14:54.219Z,20.60
2022-11-01T12:16:55.984Z,20.60
2022-11-01T12:18:58.937Z,20.70
2022-11-01T12:21:01.069Z,20.70
2022-11-01T12:23:02.806Z,20.80
2022-11-01T12:25:06.551Z,20.80
2022-11-01T12:27:13.155Z,20.80
2022-11-01T12:29:26.999Z,20.90
2022-11-01T12:31:31.626Z,20.90
2022-11-01T12:33:41.094Z,20.90
2022-11-01T12:35:44.068Z,21.00
2022-11-01T12:37:45.892Z,21.00
2022-11-01T12:40:23.401Z,21.00
2022-11-01T12:42:29.259Z,21.00
2022-11-01T12:44:38.460Z,21.00
2022-11-01T12:46:45.901Z,21.00
2022-11-01T12:48:54.504Z,21.00
2022-11-01T12:50:58.972Z,21.00
2022-11-01T12:53:03.364Z,21.10
2022-11-01T12:55:05.433Z,21.10
2022-11-01T12:57:14.614Z,21.10
2022-11-01T12:59:21.568Z,21.10
2022-11-01T13:01:45.720Z,21.20
2022-11-01T13:03:57.877Z,21.20
2022-11-01T13:05:59.555Z,21.20
2022-11-01T13:08:04.398Z,21.30
2022-11-01T13:10:20.617Z,21.30
2022-11-01T13:12:22.396Z,21.30
2022-11-01T13:14:26.815Z,21.30
2022-11-01T13:16:34.427Z,21.30
2022-11-01T13:18:39.283Z,21.30
2022-11-01T13:20:44.318Z,21.30
2022-11-01T13:23:06.856Z,21.30
2022-11-01T13:25:22.727Z,21.40
2022-11-01T13:27:38.116Z,21.40
2022-11-01T13:29:48.867Z,21.50
2022-11-01T13:32:12.339Z,21.50
2022-11-01T13:34:32.680Z,21.50
2022-11-01T13:36:42.256Z,21.50
2022-11-01T13:39:07.209Z,21.50
2022-11-01T13:41:09.022Z,21.50
2022-11-01T13:43:13.183Z,21.50
2022-11-01T13:45:28.521Z,21.50
2022-11-01T13:47:33.065Z,21.50
2022-11-01T13:49:40.743Z,21.50
2022-11-01T13:51:56.653Z,21.40
2022-11-01T13:54:07.480Z,21.40
2022-11-01T13:56:13.610Z,21.40
2022-11-01T13:58:19.039Z,21.30
2022-11-01T14:00:35.892Z,21.30
2022-11-01T14:02:46.622Z,21.30
2022-11-01T14:04:54.355Z,21.20
2022-11-01T14:07:04.196Z,21.20
2022-11-01T14:09:30.200Z,21.20
2022-11-01T14:11:41.178Z,21.20
2022-11-01T14:13:45.833Z,21.20
2022-11-01T14:15:53.758Z,21.20
2022-11-01T14:18:04.912Z,21.20
2022-11-01T14:20:08.447Z,21.20
2022-11-01T14:22:22.101Z,21.10
2022-11-01T14:24:33.561Z,21.10
2022-11-01T14:26:36.933Z,21.10
2022-11-01T14:28:48.728Z,21.10
2022-11-01T14:30:50.879Z,21.00
2022-11-01T14:33:00.531Z,21.00
2022-11-01T14:35:07.202Z,21.00
2022-11-01T14:37:17.368Z,21.10
2022-11-01T14:39:21.230Z,21.00
2022-11-01T14:41:24.543Z,21.10
2022-11-01T14:43:33.698Z,21.10
2022-11-01T14:45:40.854Z,21.10
2022-11-01T14:47:43.334Z,21.00
2022-11-01T14:49:45.422Z,21.10
2022-11-01T14:52:09.417Z,21.00
2022-11-01T14:54:20.243Z,21.00
2022-11-01T14:56:22.590Z,20.90
2022-11-01T14:58:24.323Z,20.90
2022-11-01T15:00:30.248Z,20.90
2022-11-01T15:02:32.143Z,20.80
2022-11-01T15:04:41.528Z,20.90
2022-11-01T15:06:43.248Z,20.80
2022-11-01T15:08:45.128Z,20.80
2022-11-01T15:10:47.121Z,20.80
2022-11-01T15:13:01.533Z,20.70
2022-11-01T15:15:04.054Z,20.70
2022-11-01T15:17:06.896Z,20.70
2022-11-01T15:19:14.906Z,20.60
2022-11-01T15:23:30.584Z,20.60
2022-11-01T15:25:32.379Z,20.50
2022-11-01T15:27:46.094Z,20.50
2022-11-01T15:29:48.469Z,20.40
2022-11-01T15:31:55.083Z,20.40
2022-11-01T15:33:56.795Z,20.30
2022-11-01T15:36:03.146Z,20.30
2022-11-01T15:38:19.554Z,20.20
2022-11-01T15:40:25.306Z,20.20
2022-11-01T15:42:34.727Z,20.20
2022-11-01T15:44:36.527Z,20.10
2022-11-01T15:46:42.407Z,20.10
2022-11-01T15:48:45.036Z,20.10
2022-11-01T15:50:48.239Z,20.00
2022-11-01T15:52:50.071Z,20.00
2022-11-01T15:54:58.557Z,19.90
2022-11-01T15:57:02.283Z,19.90
2022-11-01T15:59:04.175Z,19.90
2022-11-01T16:01:13.048Z,19.80
2022-11-01T16:03:24.176Z,19.80
2022-11-01T16:05:29.706Z,19.80
2022-11-01T16:07:32.962Z,19.70
2022-11-01T16:09:36.179Z,19.70
2022-11-01T16:11:38.643Z,19.60
2022-11-01T16:13:40.558Z,19.60
2022-11-01T16:15:57.480Z,19.50
2022-11-01T16:18:01.842Z,19.50
2022-11-01T16:20:07.734Z,19.40
2022-11-01T16:22:41.759Z,19.40
2022-11-01T16:24:43.499Z,19.40
2022-11-01T16:26:52.157Z,19.30
2022-11-01T16:28:54.817Z,19.30
2022-11-01T16:30:57.303Z,19.20
2022-11-01T16:33:08.054Z,19.20
2022-11-01T16:35:28.289Z,19.10
2022-11-01T16:37:30.040Z,19.10
2022-11-01T16:39:31.809Z,19.00
2022-11-01T16:41:39.866Z,19.00
2022-11-01T16:43:43.353Z,18.90
2022-11-01T16:45:45.118Z,18.90
2022-11-01T16:47:50.656Z,18.80
2022-11-01T16:49:54.969Z,18.80
2022-11-01T16:51:57.038Z,18.70
2022-11-01T16:54:00.269Z,18.70
2022-11-01T16:56:23.277Z,18.60
2022-11-01T16:58:26.064Z,18.60
2022-11-01T17:00:27.756Z,18.50
2022-11-01T17:02:30.036Z,18.50
2022-11-01T17:04:32.229Z,18.40
2022-11-01T17:06:38.607Z,18.40
2022-11-01T17:08:41.299Z,18.30
2022-11-01T17:10:43.115Z,18.30
2022-11-01T17:12:45.061Z,18.30
2022-11-01T17:14:46.883Z,18.30
2022-11-01T17:16:52.461Z,18.20
2022-11-01T17:18:55.756Z,18.20
2022-11-01T17:20:58.647Z,18.10
2022-11-01T17:23:00.458Z,18.10
2022-11-01T17:25:03.463Z,18.10
2022-11-01T17:27:05.466Z,18.00
2022-11-01T17:29:07.673Z,18.00
2022-11-01T17:31:09.466Z,18.00
2022-11-01T17:33:11.385Z,17.90
2022-11-01T17:35:15.371Z,17.90
2022-11-01T17:37:17.492Z,17.90
2022-11-01T17:39:20.102Z,17.90
2022-11-01T17:41:24.674Z,17.80
2022-11-01T17:43:26.648Z,17.80
2022-11-01T17:45:28.541Z,17.70
2022-11-01T17:47:30.265Z,17.70
2022-11-01T17:49:32.042Z,17.70
2022-11-01T17:51:34.144Z,17.70
2022-11-01T17:53:39.245Z,17.60
2022-11-01T17:55:42.061Z,17.60
2022-11-01T17:57:43.876Z,17.60
2022-11-01T17:59:45.704Z,17.50
2022-11-01T18:01:47.799Z,17.50
2022-11-01T18:03:49.651Z,17.50
2022-11-01T18:05:51.830Z,17.50
2022-11-01T18:29:13.175Z,17.20
2022-11-01T18:31:34.683Z,17.30
2022-11-01T18:40:07.041Z,17.20
2022-11-01T18:42:36.648Z,17.10
2022-11-01T18:45:13.211Z,17.10
2022-11-01T18:48:00.686Z,17.10
2022-11-01T18:50:53.665Z,17.00
2022-11-01T18:53:48.247Z,17.00
2022-11-01T18:56:30.997Z,17.00
2022-11-01T18:59:03.829Z,16.90
2022-11-01T19:01:42.624Z,16.90
2022-11-01T19:06:50.135Z,16.90
2022-11-01T19:09:26.165Z,16.80
2022-11-01T19:11:39.953Z,16.90
2022-11-01T19:13:47.344Z,16.80
2022-11-01T19:16:00.019Z,16.80
2022-11-01T19:18:27.090Z,16.80
2022-11-01T19:20:42.147Z,16.80
2022-11-01T19:22:56.409Z,16.80
2022-11-01T19:25:17.383Z,16.80
2022-11-01T19:27:31.566Z,16.70
2022-11-01T19:32:27.058Z,16.70
2022-11-01T19:37:41.537Z,16.60
2022-11-01T19:47:16.288Z,16.60
2022-11-01T19:50:08.690Z,16.60
2022-11-01T19:52:14.807Z,16.50
2022-11-01T19:54:18.654Z,16.50
2022-11-01T19:56:31.663Z,16.50
2022-11-01T19:58:49.701Z,16.50
2022-11-01T20:04:04.617Z,16.50
2022-11-01T20:07:16.279Z,16.40
2022-11-01T20:12:20.035Z,16.40
2022-11-01T20:14:29.483Z,16.40
2022-11-01T20:16:45.963Z,16.30
2022-11-01T20:19:05.284Z,16.30
2022-11-01T20:21:09.714Z,16.30
2022-11-01T20:23:30.267Z,16.30
2022-11-01T20:25:59.517Z,16.30
2022-11-01T20:28:13.197Z,16.30
2022-11-01T20:30:25.583Z,16.20
2022-11-01T20:32:31.806Z,16.20
2022-11-01T20:37:27.395Z,16.10
2022-11-01T20:40:03.482Z,16.20
2022-11-01T20:44:34.457Z,16.10
2022-11-01T20:46:57.942Z,16.10
2022-11-01T20:49:03.844Z,16.10
2022-11-01T20:51:19.140Z,16.10
2022-11-01T20:54:17.798Z,16.00
2022-11-01T20:56:48.667Z,16.00
2022-11-01T20:59:31.552Z,16.00
2022-11-01T21:04:07.657Z,16.00
2022-11-01T21:06:37.259Z,16.00
2022-11-01T21:08:41.919Z,15.90
2022-11-01T21:11:10.939Z,15.90
2022-11-01T21:14:14.566Z,15.90
2022-11-01T21:16:56.493Z,15.90
2022-11-01T21:19:57.688Z,15.80
2022-11-01T21:22:38.365Z,15.80
2022-11-01T21:24:58.385Z,15.80
2022-11-01T21:27:42.590Z,15.80
2022-11-01T21:31:02.651Z,15.80
2022-11-01T21:35:58.377Z,15.70
2022-11-01T21:38:48.808Z,15.70
2022-11-01T21:41:00.852Z,15.70
2022-11-01T21:43:34.779Z,15.70
2022-11-01T21:46:05.359Z,15.60
2022-11-01T21:49:05.873Z,15.60
2022-11-01T21:53:44.591Z,15.60
2022-11-01T21:55:49.191Z,15.60
2022-11-01T21:58:14.093Z,15.50
2022-11-01T22:00:18.933Z,15.60
2022-11-01T22:02:23.802Z,15.50
2022-11-01T22:04:40.908Z,15.50
2022-11-01T22:06:56.106Z,15.50
2022-11-01T22:11:32.878Z,15.50
2022-11-01T22:13:47.225Z,15.50
2022-11-01T22:18:11.064Z,15.50
2022-11-01T22:20:24.054Z,15.50
2022-11-01T22:22:28.456Z,15.40
2022-11-01T22:24:42.380Z,15.50
2022-11-01T22:26:48.732Z,15.50
2022-11-01T22:29:07.088Z,15.50
2022-11-01T22:33:44.900Z,15.40
2022-11-01T22:35:54.299Z,15.50
2022-11-01T22:38:22.819Z,15.50
2022-11-01T22:40:43.418Z,15.50
2022-11-01T22:43:04.282Z,15.50
2022-11-01T22:45:19.001Z,15.50
2022-11-01T22:50:20.767Z,15.50
2022-11-01T22:52:44.352Z,15.40
2022-11-01T22:55:00.741Z,15.40
2022-11-01T22:57:20.599Z,15.50
2022-11-01T22:59:58.900Z,15.50
2022-11-01T23:02:36.686Z,15.60
2022-11-01T23:05:32.305Z,15.60
2022-11-01T23:08:16.339Z,15.60
2022-11-01T23:10:24.731Z,15.60
2022-11-01T23:15:40.204Z,15.60
2022-11-01T23:18:15.771Z,15.60
2022-11-01T23:20:45.168Z,15.60
2022-11-01T23:23:11.581Z,15.60
2022-11-01T23:31:47.426Z,15.60
2022-11-01T23:34:01.195Z,15.70
2022-11-01T23:36:18.424Z,15.70
2022-11-01T23:42:15.001Z,15.60
2022-11-01T23:55:48.328Z,15.60
2022-11-01T23:57:59.428Z,15.50
